createdAt,value
2022-08-10T02:32:38.754Z,16.71
2022-08-10T02:35:54.053Z,16.99
2022-08-10T02:39:00.997Z,17.43
2022-08-10T02:45:12.621Z,17.39
2022-08-10T02:45:52.790Z,17.21
2022-08-10T02:49:03.818Z,17.28
2022-08-10T02:52:11.573Z,17.07
2022-08-10T02:55:33.547Z,16.29
2022-08-10T02:58:46.969Z,16.77
2022-08-10T03:01:50.309Z,16.96
2022-08-10T03:04:58.087Z,17.22
2022-08-10T03:08:07.010Z,16.78
2022-08-10T03:11:13.609Z,17.36
2022-08-10T03:14:16.932Z,16.72
2022-08-10T03:17:20.249Z,16.50
2022-08-10T03:20:37.514Z,16.57
2022-08-10T03:23:43.250Z,16.66
2022-08-10T03:26:45.065Z,16.74
2022-08-10T03:30:29.849Z,16.57
2022-08-10T03:33:11.024Z,16.67
2022-08-10T03:36:40.212Z,16.43
2022-08-10T03:39:34.314Z,16.72
2022-08-10T03:42:38.349Z,16.84
2022-08-10T03:45:54.937Z,16.58
2022-08-10T03:49:02.080Z,15.65
2022-08-10T03:52:06.268Z,15.56
2022-08-10T03:55:08.260Z,15.29
2022-08-10T03:58:10.702Z,15.94
2022-08-10T04:01:14.422Z,15.89
2022-08-10T04:04:20.818Z,15.78
2022-08-10T04:07:25.186Z,16.24
2022-08-10T04:10:27.146Z,16.58
2022-08-10T04:13:30.453Z,16.64
2022-08-10T04:16:32.000Z,16.48
2022-08-10T04:19:45.809Z,16.72
2022-08-10T04:22:52.225Z,16.65
2022-08-10T04:25:54.964Z,16.45
2022-08-10T04:28:56.486Z,16.31
2022-08-10T04:31:59.357Z,16.56
2022-08-10T04:35:03.606Z,16.71
2022-08-10T04:38:06.788Z,16.56
2022-08-10T04:41:08.987Z,16.45
2022-08-10T04:44:10.573Z,16.81
2022-08-10T04:47:14.019Z,17.31
2022-08-10T04:50:18.381Z,17.42
2022-08-10T04:53:25.986Z,17.35
2022-08-10T04:56:31.859Z,17.45
2022-08-10T04:59:33.705Z,17.44
2022-08-10T05:02:35.502Z,17.23
2022-08-10T05:05:37.131Z,17.21
2022-08-10T05:08:38.587Z,17.34
2022-08-10T05:11:42.439Z,17.41
2022-08-10T05:14:43.947Z,17.57
2022-08-10T05:18:08.108Z,17.57
2022-08-10T05:21:07.972Z,17.61
2022-08-10T05:24:09.458Z,17.76
2022-08-10T05:27:10.938Z,17.79
2022-08-10T05:30:18.731Z,17.86
2022-08-10T05:33:20.522Z,17.96
2022-08-10T05:36:22.126Z,18.05
2022-08-10T05:39:28.694Z,18.15
2022-08-10T05:42:34.187Z,18.17
2022-08-10T05:46:16.659Z,18.27
2022-08-10T05:49:00.861Z,18.43
2022-08-10T05:52:03.767Z,18.52
2022-08-10T05:55:06.018Z,18.59
2022-08-10T05:58:07.603Z,18.68
2022-08-10T06:01:13.610Z,18.77
2022-08-10T06:04:26.599Z,18.89
2022-08-10T06:07:30.465Z,18.94
2022-08-10T06:10:35.270Z,19.03
2022-08-10T06:14:13.186Z,19.09
2022-08-10T06:17:18.411Z,19.24
2022-08-10T06:20:20.715Z,19.35
2022-08-10T06:23:23.334Z,19.42
2022-08-10T06:26:24.854Z,19.49
2022-08-10T06:29:29.695Z,19.49
2022-08-10T06:32:31.537Z,19.62
2022-08-10T06:35:34.658Z,19.66
2022-08-10T06:38:39.346Z,19.58
2022-08-10T06:42:15.458Z,19.59
2022-08-10T06:45:12.531Z,19.75
2022-08-10T06:48:20.528Z,19.82
2022-08-10T06:51:27.581Z,19.89
2022-08-10T06:54:32.136Z,20.00
2022-08-10T06:57:37.292Z,20.08
2022-08-10T07:00:43.000Z,20.18
2022-08-10T07:04:10.093Z,20.17
2022-08-10T07:07:18.477Z,20.40
2022-08-10T07:10:22.223Z,20.52
2022-08-10T07:14:16.884Z,20.56
2022-08-10T07:16:47.971Z,20.67
2022-08-10T07:19:52.409Z,20.99
2022-08-10T07:23:01.140Z,20.96
2022-08-10T07:26:19.134Z,21.08
2022-08-10T07:29:53.378Z,21.22
2022-08-10T07:32:51.563Z,21.24
2022-08-10T07:35:54.757Z,21.38
2022-08-10T07:38:57.886Z,21.53
2022-08-10T07:42:02.026Z,21.60
2022-08-10T07:45:05.023Z,21.66
2022-08-10T07:48:32.686Z,21.67
2022-08-10T07:51:35.683Z,21.88
2022-08-10T07:54:42.321Z,21.86
2022-08-10T07:57:48.388Z,21.96
2022-08-10T08:00:52.125Z,22.04
2022-08-10T08:04:05.916Z,22.16
2022-08-10T08:07:12.804Z,22.23
2022-08-10T08:10:17.721Z,22.32
2022-08-10T08:13:22.350Z,22.72
2022-08-10T08:16:24.394Z,22.89
2022-08-10T08:19:37.354Z,22.82
2022-08-10T08:24:09.792Z,22.80
2022-08-10T08:26:07.530Z,22.82
2022-08-10T08:29:12.330Z,23.06
2022-08-10T08:32:18.750Z,23.18
2022-08-10T08:35:22.468Z,23.31
2022-08-10T08:38:32.592Z,23.17
2022-08-10T08:41:48.178Z,23.35
2022-08-10T08:45:08.079Z,23.36
2022-08-10T08:48:45.507Z,23.62
2022-08-10T08:52:18.605Z,23.65
2022-08-10T08:56:04.156Z,23.56
2022-08-10T08:59:22.777Z,23.95
2022-08-10T09:03:06.057Z,24.06
2022-08-10T09:06:40.474Z,24.14
2022-08-10T09:10:01.489Z,24.23
2022-08-10T09:13:44.138Z,24.20
2022-08-10T09:16:57.677Z,24.33
2022-08-10T09:20:04.021Z,24.27
2022-08-10T09:24:05.155Z,24.50
2022-08-10T09:26:54.780Z,24.25
2022-08-10T09:30:06.393Z,24.50
2022-08-10T09:36:29.966Z,24.67
2022-08-10T09:37:07.053Z,24.76
2022-08-10T09:41:01.302Z,24.86
2022-08-10T09:44:00.350Z,24.92
2022-08-10T09:48:01.003Z,25.13
2022-08-10T09:51:43.798Z,25.23
2022-08-10T09:55:00.013Z,25.17
2022-08-10T09:58:40.411Z,25.16
2022-08-10T10:02:03.306Z,25.24
2022-08-10T10:05:29.467Z,25.11
2022-08-10T10:08:45.958Z,25.14
2022-08-10T10:12:11.947Z,25.42
2022-08-10T10:15:40.646Z,25.30
2022-08-10T10:18:49.449Z,25.44
2022-08-10T10:22:16.621Z,25.49
2022-08-10T10:25:49.708Z,25.42
2022-08-10T10:29:58.502Z,25.34
2022-08-10T10:33:25.284Z,25.63
2022-08-10T10:36:28.798Z,25.76
2022-08-10T10:39:32.356Z,25.87
2022-08-10T10:43:31.877Z,26.14
2022-08-10T10:47:01.469Z,25.93
2022-08-10T10:50:11.863Z,25.67
2022-08-10T10:53:25.671Z,26.14
2022-08-10T10:56:50.564Z,26.21
2022-08-10T11:00:03.799Z,26.02
2022-08-10T11:03:27.013Z,26.18
2022-08-10T11:06:40.980Z,26.34
2022-08-10T11:10:03.337Z,26.55
2022-08-10T11:14:24.950Z,26.51
2022-08-10T11:17:27.046Z,26.70
2022-08-10T11:20:51.892Z,26.73
2022-08-10T11:24:47.342Z,26.81
2022-08-10T11:27:59.434Z,26.52
2022-08-10T11:31:16.271Z,26.31
2022-08-10T11:34:47.546Z,26.51
2022-08-10T11:38:31.041Z,26.63
2022-08-10T11:42:11.933Z,26.96
2022-08-10T11:45:34.303Z,27.21
2022-08-10T11:49:04.087Z,27.05
2022-08-10T11:52:08.788Z,26.68
2022-08-10T11:55:31.942Z,26.86
2022-08-10T11:58:58.691Z,26.81
2022-08-10T12:02:03.111Z,26.88
2022-08-10T12:05:11.062Z,26.72
2022-08-10T12:10:04.796Z,27.08
2022-08-10T12:11:39.839Z,27.48
2022-08-10T12:14:53.690Z,27.64
2022-08-10T12:18:01.722Z,27.44
2022-08-10T12:21:21.462Z,27.52
2022-08-10T12:24:48.782Z,27.22
2022-08-10T12:27:56.361Z,27.07
2022-08-10T12:30:59.989Z,27.64
2022-08-10T12:34:22.981Z,27.76
2022-08-10T12:37:33.026Z,28.18
2022-08-10T12:40:44.295Z,27.85
2022-08-10T12:44:04.494Z,27.51
2022-08-10T12:47:27.614Z,27.48
2022-08-10T12:50:52.251Z,27.52
2022-08-10T12:54:14.470Z,27.86
2022-08-10T12:57:19.117Z,28.06
2022-08-10T13:00:29.036Z,27.76
2022-08-10T13:04:23.143Z,27.74
2022-08-10T13:06:53.964Z,27.82
2022-08-10T13:10:01.982Z,27.69
2022-08-10T13:13:04.174Z,27.79
2022-08-10T13:16:06.167Z,27.62
2022-08-10T13:19:09.178Z,27.59
2022-08-10T13:22:12.722Z,27.19
2022-08-10T13:25:20.285Z,27.56
2022-08-10T13:28:39.812Z,27.73
2022-08-10T13:32:09.126Z,27.97
2022-08-10T13:35:12.340Z,27.79
2022-08-10T13:38:21.642Z,27.75
2022-08-10T13:41:32.278Z,27.88
2022-08-10T13:44:41.912Z,27.59
2022-08-10T13:47:49.380Z,28.07
2022-08-10T13:50:56.409Z,28.12
2022-08-10T13:54:01.146Z,28.00
2022-08-10T13:57:04.571Z,27.90
2022-08-10T14:00:33.762Z,28.21
2022-08-10T14:03:37.411Z,27.80
2022-08-10T14:06:41.498Z,27.97
2022-08-10T14:09:47.381Z,27.98
2022-08-10T14:12:50.781Z,28.31
2022-08-10T14:15:53.672Z,28.15
2022-08-10T14:18:59.224Z,28.05
2022-08-10T14:22:01.525Z,28.04
2022-08-10T14:25:08.771Z,28.07
2022-08-10T14:28:11.427Z,28.16
2022-08-10T14:31:21.110Z,28.09
2022-08-10T14:36:05.018Z,27.87
2022-08-10T14:38:07.813Z,28.11
2022-08-10T14:42:04.500Z,28.23
2022-08-10T14:44:55.381Z,28.32
2022-08-10T14:48:05.434Z,28.26
2022-08-10T14:51:12.695Z,28.44
2022-08-10T14:54:19.893Z,28.42
2022-08-10T14:57:23.981Z,28.44
2022-08-10T15:00:46.067Z,28.45
2022-08-10T15:04:01.851Z,28.24
2022-08-10T15:07:17.469Z,27.83
2022-08-10T15:10:24.067Z,28.13
2022-08-10T15:13:34.612Z,28.43
2022-08-10T15:16:37.492Z,28.49
2022-08-10T15:20:02.187Z,28.79
2022-08-10T15:23:30.820Z,28.87
2022-08-10T15:26:32.859Z,28.99
2022-08-10T15:29:57.212Z,28.65
2022-08-10T15:34:02.074Z,28.90
2022-08-10T15:37:47.127Z,29.00
2022-08-10T15:40:31.215Z,29.27
2022-08-10T15:43:44.651Z,29.46
2022-08-10T15:46:52.936Z,29.36
2022-08-10T15:50:19.760Z,28.95
2022-08-10T15:53:49.243Z,29.05
2022-08-10T15:56:56.583Z,29.32
2022-08-10T16:00:21.921Z,29.60
2022-08-10T16:03:30.480Z,29.30
2022-08-10T16:06:41.163Z,29.74
2022-08-10T16:10:11.013Z,29.79
2022-08-10T16:13:59.156Z,29.69
2022-08-10T16:16:38.476Z,29.77
2022-08-10T16:19:56.750Z,29.72
2022-08-10T16:23:02.435Z,29.85
2022-08-10T16:26:14.556Z,29.66
2022-08-10T16:29:19.671Z,29.86
2022-08-10T16:32:23.014Z,29.58
2022-08-10T16:35:24.674Z,29.27
2022-08-10T16:38:26.942Z,29.47
2022-08-10T16:42:02.129Z,29.64
2022-08-10T16:44:57.955Z,29.20
2022-08-10T16:48:01.614Z,29.48
2022-08-10T16:51:04.685Z,28.95
2022-08-10T16:54:07.721Z,29.25
2022-08-10T16:57:11.125Z,29.50
2022-08-10T17:00:13.726Z,29.49
2022-08-10T17:03:22.548Z,29.39
2022-08-10T17:06:51.385Z,29.20
2022-08-10T17:10:07.557Z,28.49
2022-08-10T17:13:11.509Z,28.02
2022-08-10T17:16:16.855Z,27.88
2022-08-10T17:19:22.635Z,27.76
2022-08-10T17:22:30.587Z,27.67
2022-08-10T17:25:46.206Z,27.46
2022-08-10T17:28:55.790Z,27.29
2022-08-10T17:32:00.711Z,27.10
2022-08-10T17:35:07.451Z,26.99
2022-08-10T17:38:28.961Z,26.81
2022-08-10T17:41:33.772Z,26.68
2022-08-10T17:44:45.554Z,26.51
2022-08-10T17:47:52.283Z,26.38
2022-08-10T17:50:54.670Z,26.22
2022-08-10T17:54:04.520Z,26.19
2022-08-10T17:57:13.689Z,25.99
2022-08-10T18:00:15.816Z,25.85
2022-08-10T18:03:25.652Z,25.75
2022-08-10T18:06:28.791Z,25.59
2022-08-10T18:09:54.810Z,25.37
2022-08-10T18:12:57.626Z,25.28
2022-08-10T18:15:59.293Z,25.28
2022-08-10T18:19:07.836Z,25.20
2022-08-10T18:22:11.612Z,25.08
2022-08-10T18:25:27.334Z,25.06
2022-08-10T18:28:30.893Z,24.87
2022-08-10T18:31:34.047Z,24.75
2022-08-10T18:34:37.506Z,24.58
2022-08-10T18:37:41.329Z,24.66
2022-08-10T18:40:51.537Z,24.68
2022-08-10T18:44:06.607Z,24.62
2022-08-10T18:47:17.768Z,24.41
2022-08-10T18:50:24.904Z,24.35
2022-08-10T18:53:48.184Z,24.21
2022-08-10T18:56:58.011Z,24.16
2022-08-10T19:00:17.726Z,24.08
2022-08-10T19:03:35.858Z,24.04
2022-08-10T19:06:58.902Z,23.92
2022-08-10T19:10:22.321Z,23.81
2022-08-10T19:13:26.907Z,23.75
2022-08-10T19:16:48.771Z,23.64
2022-08-10T19:20:21.426Z,23.49
2022-08-10T19:23:28.820Z,23.43
2022-08-10T19:26:43.834Z,23.16
2022-08-10T19:30:09.895Z,23.15
2022-08-10T19:33:47.720Z,23.11
2022-08-10T19:37:16.769Z,22.82
2022-08-10T19:40:46.501Z,22.72
2022-08-10T19:44:12.633Z,22.40
2022-08-10T19:47:25.255Z,22.50
2022-08-10T19:50:40.042Z,22.47
2022-08-10T19:53:41.490Z,22.44
2022-08-10T19:57:03.485Z,22.32
2022-08-10T20:00:18.710Z,22.12
2022-08-10T20:03:29.356Z,22.22
2022-08-10T20:06:45.796Z,22.08
2022-08-10T20:10:00.838Z,22.07
2022-08-10T20:13:25.542Z,22.04
2022-08-10T20:16:30.553Z,22.07
2022-08-10T20:20:02.019Z,22.01
2022-08-10T20:23:20.977Z,21.92
2022-08-10T20:26:32.173Z,22.00
2022-08-10T20:29:57.401Z,21.87
2022-08-10T20:33:09.782Z,21.50
2022-08-10T20:36:26.354Z,21.41
2022-08-10T20:39:30.909Z,21.40
2022-08-10T20:42:43.376Z,21.48
2022-08-10T20:46:07.886Z,21.08
2022-08-10T20:49:24.259Z,21.00
2022-08-10T20:52:27.654Z,20.98
2022-08-10T20:55:47.860Z,21.17
2022-08-10T20:59:09.347Z,21.38
2022-08-10T21:02:30.184Z,21.24
2022-08-10T21:05:57.026Z,21.15
2022-08-10T21:09:17.294Z,21.12
2022-08-10T21:12:34.575Z,21.20
2022-08-10T21:15:57.562Z,21.11
2022-08-10T21:19:05.198Z,21.08
2022-08-10T21:22:17.446Z,21.19
2022-08-10T21:25:29.676Z,21.11
2022-08-10T21:28:53.071Z,21.14
2022-08-10T21:32:03.962Z,21.23
2022-08-10T21:35:08.897Z,21.15
2022-08-10T21:38:40.083Z,21.06
2022-08-10T21:42:16.840Z,20.98
2022-08-10T21:46:01.870Z,19.63
2022-08-10T21:49:37.286Z,19.46
2022-08-10T21:53:08.705Z,19.65
2022-08-10T21:56:57.285Z,19.71
2022-08-10T22:00:23.100Z,20.17
2022-08-10T22:03:53.885Z,19.80
2022-08-10T22:07:20.155Z,18.97
2022-08-10T22:10:44.544Z,19.15
2022-08-10T22:14:06.410Z,19.68
2022-08-10T22:18:03.835Z,19.78
2022-08-10T22:21:29.710Z,20.11
2022-08-10T22:25:45.437Z,19.78
2022-08-10T22:29:16.731Z,19.23
2022-08-10T22:33:00.607Z,19.23
2022-08-10T22:36:37.841Z,19.57
2022-08-10T22:40:17.187Z,19.37
2022-08-10T22:43:45.835Z,19.38
2022-08-10T22:47:08.272Z,18.97
2022-08-10T22:50:11.844Z,18.46
2022-08-10T22:53:19.371Z,17.69
2022-08-10T22:56:41.863Z,18.42
2022-08-10T22:59:43.428Z,18.59
2022-08-10T23:02:56.223Z,18.67
2022-08-10T23:06:06.256Z,18.59
2022-08-10T23:09:12.455Z,18.56
2022-08-10T23:12:18.114Z,18.64
2022-08-10T23:15:53.932Z,18.59
2022-08-10T23:19:10.601Z,18.53
2022-08-10T23:22:14.940Z,18.51
2022-08-10T23:25:20.562Z,18.50
2022-08-10T23:28:39.282Z,18.01
2022-08-10T23:31:59.237Z,18.65
2022-08-10T23:36:30.254Z,18.46
2022-08-10T23:38:35.671Z,18.46
2022-08-10T23:41:38.930Z,18.54
2022-08-10T23:44:47.857Z,17.86
2022-08-10T23:47:53.519Z,17.43
2022-08-10T23:51:00.301Z,17.67
2022-08-10T23:54:08.523Z,17.71
2022-08-10T23:57:16.159Z,17.87
